Lester Prairie, MN

3:40 PM CST on January 28, 2015 (GMT -0600)
Hutchinson Municipal-Butler | Change Station
CLOSE
Current Station
Airport
Location: Hutchinson,
Elevation: 1060 ft
Nearby Weather Stations

Elev 1060 ft 44.86 °N, 94.39 °W | Updated 8 minutes ago

Overcast
Overcast
32 °F
Feels Like 26 °F
N
7
Wind Variable Wind from ESE

Today
High -- | Low -- °F
--% Chance of Precip.
Yesterday
High -- | Low -- °F
Precip. -- in
7:40 AM 5:18 PM
Waxing Gibbous, 68% visible
Pressure 29.78 in
Visibility 2.5 miles
Clouds Overcast 600 ft
Windchill 26 °F
Dew Point 32 °F
Humidity 98%
Rainfall 0.00 in
Snow Depth Not available.
UV 0 out of 12
Pollen .10 out of 12
Air Quality Not available.
Flu Activity Not available.
METAR KHCD 282132Z AUTO 12006KT 2 1/2SM BR OVC006 00/00 A2978 RMK AO2 T00011002

More Conditions Fewer Conditions

Pressure 29.78 in
Visibility 2.5 miles
Clouds Overcast 600 ft
Windchill 26 °F
Dew Point 32 °F
Humidity 98%
Rainfall 0.00 in
Snow Depth Not available.
UV 0 out of 12
Pollen .10 out of 12
Air Quality Not available.
Flu Activity Not available.
METAR KHCD 282132Z AUTO 12006KT 2 1/2SM BR OVC006 00/00 A2978 RMK AO2 T00011002

More Conditions Fewer Conditions

10-Day Weather Forecast

Almanac

Astronomy

Jan. 28, 2015 Rise Set
Actual Time
Civil Twilight
Nautical Twilight
Astronomical Twilight
Moon
Length of Visible Light
Length of Day
Tomorrow will be .
, % of the Moon is Illuminated

Today's Extremes

State Highs State Lows

Community

WunderPhotos

Upload Photos

1,791,271 photos uploaded!

WunderBlogs® & News

Nearby

Air Quality

  Air Quality AQ Index Pollutant
Not available.

Snow Depth

Station Depth Elevation

Earthquake Activity

City Distance Mag. Time & Date
Minimum magnitude displayed is 2.5.

Coastal Water Temperatures

Place Temperature

Nearby Weather Stations